sensor_id;sensor_type;location;lat;lon;timestamp;P1;durP1;ratioP1;P2;durP2;ratioP2
74933;SDS011;63499;53.232;7.492;2023-05-15T00:01:22;27.95;;;22.40;;
74933;SDS011;63499;53.232;7.492;2023-05-15T00:03:50;30.23;;;24.48;;
74933;SDS011;63499;53.232;7.492;2023-05-15T00:06:17;30.48;;;24.38;;
74933;SDS011;63499;53.232;7.492;2023-05-15T00:08:44;30.33;;;23.25;;
74933;SDS011;63499;53.232;7.492;2023-05-15T00:11:11;32.92;;;24.80;;
74933;SDS011;63499;53.232;7.492;2023-05-15T00:13:38;30.80;;;24.10;;
74933;SDS011;63499;53.232;7.492;2023-05-15T00:16:06;28.20;;;22.88;;
74933;SDS011;63499;53.232;7.492;2023-05-15T00:18:36;31.65;;;22.40;;
74933;SDS011;63499;53.232;7.492;2023-05-15T00:21:03;28.50;;;19.63;;
74933;SDS011;63499;53.232;7.492;2023-05-15T00:23:30;28.33;;;21.88;;
74933;SDS011;63499;53.232;7.492;2023-05-15T00:25:57;29.23;;;21.92;;
74933;SDS011;63499;53.232;7.492;2023-05-15T00:28:24;29.10;;;23.10;;
74933;SDS011;63499;53.232;7.492;2023-05-15T00:30:50;31.40;;;23.35;;
74933;SDS011;63499;53.232;7.492;2023-05-15T00:33:17;31.45;;;23.77;;
74933;SDS011;63499;53.232;7.492;2023-05-15T00:35:44;31.67;;;24.50;;
74933;SDS011;63499;53.232;7.492;2023-05-15T00:38:11;33.05;;;24.17;;
74933;SDS011;63499;53.232;7.492;2023-05-15T00:40:38;28.55;;;22.85;;
74933;SDS011;63499;53.232;7.492;2023-05-15T00:43:05;30.23;;;24.15;;
74933;SDS011;63499;53.232;7.492;2023-05-15T00:45:32;28.40;;;22.55;;
74933;SDS011;63499;53.232;7.492;2023-05-15T00:47:59;25.25;;;20.98;;
74933;SDS011;63499;53.232;7.492;2023-05-15T00:50:26;29.00;;;22.20;;
74933;SDS011;63499;53.232;7.492;2023-05-15T00:52:53;32.83;;;24.25;;
74933;SDS011;63499;53.232;7.492;2023-05-15T00:55:21;32.80;;;25.02;;
74933;SDS011;63499;53.232;7.492;2023-05-15T00:57:49;33.88;;;24.27;;
74933;SDS011;63499;53.232;7.492;2023-05-15T01:00:16;31.15;;;23.55;;
74933;SDS011;63499;53.232;7.492;2023-05-15T01:02:45;30.33;;;24.17;;
74933;SDS011;63499;53.232;7.492;2023-05-15T01:05:12;32.00;;;24.83;;
74933;SDS011;63499;53.232;7.492;2023-05-15T01:07:44;31.23;;;23.77;;
74933;SDS011;63499;53.232;7.492;2023-05-15T01:10:13;32.70;;;24.48;;
74933;SDS011;63499;53.232;7.492;2023-05-15T01:12:40;32.72;;;25.30;;
74933;SDS011;63499;53.232;7.492;2023-05-15T01:15:08;29.55;;;23.77;;
74933;SDS011;63499;53.232;7.492;2023-05-15T01:17:35;33.60;;;25.27;;
74933;SDS011;63499;53.232;7.492;2023-05-15T01:20:05;32.80;;;22.27;;
74933;SDS011;63499;53.232;7.492;2023-05-15T01:25:37;30.67;;;23.95;;
74933;SDS011;63499;53.232;7.492;2023-05-15T01:28:11;30.98;;;22.15;;
74933;SDS011;63499;53.232;7.492;2023-05-15T01:30:40;29.50;;;22.33;;
74933;SDS011;63499;53.232;7.492;2023-05-15T01:33:17;30.67;;;22.40;;
74933;SDS011;63499;53.232;7.492;2023-05-15T01:35:52;29.80;;;21.48;;
74933;SDS011;63499;53.232;7.492;2023-05-15T01:41:01;33.63;;;22.02;;
74933;SDS011;63499;53.232;7.492;2023-05-15T01:43:28;28.95;;;21.17;;
74933;SDS011;63499;53.232;7.492;2023-05-15T01:45:57;26.08;;;20.30;;
74933;SDS011;63499;53.232;7.492;2023-05-15T01:48:24;30.38;;;22.40;;
74933;SDS011;63499;53.232;7.492;2023-05-15T01:50:53;28.17;;;19.40;;
74933;SDS011;63499;53.232;7.492;2023-05-15T01:53:20;31.35;;;22.90;;
74933;SDS011;63499;53.232;7.492;2023-05-15T01:55:50;28.45;;;20.65;;
74933;SDS011;63499;53.232;7.492;2023-05-15T01:58:20;29.98;;;22.35;;
74933;SDS011;63499;53.232;7.492;2023-05-15T02:00:47;25.77;;;20.00;;
74933;SDS011;63499;53.232;7.492;2023-05-15T02:03:14;26.45;;;20.00;;
74933;SDS011;63499;53.232;7.492;2023-05-15T02:05:41;26.85;;;21.02;;
74933;SDS011;63499;53.232;7.492;2023-05-15T02:08:08;27.90;;;21.05;;
74933;SDS011;63499;53.232;7.492;2023-05-15T02:10:35;27.65;;;20.65;;
74933;SDS011;63499;53.232;7.492;2023-05-15T02:13:03;25.00;;;18.80;;
74933;SDS011;63499;53.232;7.492;2023-05-15T02:15:31;28.45;;;19.80;;
74933;SDS011;63499;53.232;7.492;2023-05-15T02:17:57;28.75;;;20.13;;
74933;SDS011;63499;53.232;7.492;2023-05-15T02:20:24;29.75;;;21.05;;
74933;SDS011;63499;53.232;7.492;2023-05-15T02:22:51;26.48;;;20.38;;
74933;SDS011;63499;53.232;7.492;2023-05-15T02:25:18;27.30;;;19.83;;
74933;SDS011;63499;53.232;7.492;2023-05-15T02:27:50;28.40;;;21.48;;
74933;SDS011;63499;53.232;7.492;2023-05-15T02:30:34;27.60;;;20.10;;
74933;SDS011;63499;53.232;7.492;2023-05-15T02:33:11;25.00;;;19.00;;
74933;SDS011;63499;53.232;7.492;2023-05-15T02:38:13;35.30;;;21.43;;
74933;SDS011;63499;53.232;7.492;2023-05-15T02:40:42;40.53;;;20.67;;
74933;SDS011;63499;53.232;7.492;2023-05-15T02:43:09;27.92;;;19.65;;
74933;SDS011;63499;53.232;7.492;2023-05-15T02:45:36;33.28;;;19.85;;
74933;SDS011;63499;53.232;7.492;2023-05-15T02:48:05;34.78;;;23.13;;
74933;SDS011;63499;53.232;7.492;2023-05-15T02:50:31;30.67;;;19.35;;
74933;SDS011;63499;53.232;7.492;2023-05-15T02:53:05;37.85;;;22.15;;
74933;SDS011;63499;53.232;7.492;2023-05-15T02:55:34;31.65;;;18.95;;
74933;SDS011;63499;53.232;7.492;2023-05-15T02:58:01;30.75;;;19.65;;
74933;SDS011;63499;53.232;7.492;2023-05-15T03:00:28;39.65;;;22.67;;
74933;SDS011;63499;53.232;7.492;2023-05-15T03:02:55;45.90;;;23.67;;
74933;SDS011;63499;53.232;7.492;2023-05-15T03:05:31;50.88;;;23.98;;
74933;SDS011;63499;53.232;7.492;2023-05-15T03:07:58;32.17;;;19.42;;
74933;SDS011;63499;53.232;7.492;2023-05-15T03:10:25;38.08;;;23.63;;
74933;SDS011;63499;53.232;7.492;2023-05-15T03:12:53;38.40;;;21.63;;
74933;SDS011;63499;53.232;7.492;2023-05-15T03:15:22;27.73;;;17.75;;
74933;SDS011;63499;53.232;7.492;2023-05-15T03:17:49;34.20;;;20.73;;
74933;SDS011;63499;53.232;7.492;2023-05-15T03:20:16;35.45;;;22.23;;
74933;SDS011;63499;53.232;7.492;2023-05-15T03:22:43;31.38;;;19.05;;
74933;SDS011;63499;53.232;7.492;2023-05-15T03:25:10;30.95;;;18.60;;
74933;SDS011;63499;53.232;7.492;2023-05-15T03:27:36;33.30;;;19.90;;
74933;SDS011;63499;53.232;7.492;2023-05-15T03:30:05;44.75;;;23.25;;
74933;SDS011;63499;53.232;7.492;2023-05-15T03:32:32;37.35;;;21.98;;
74933;SDS011;63499;53.232;7.492;2023-05-15T03:35:02;39.22;;;22.30;;
74933;SDS011;63499;53.232;7.492;2023-05-15T03:37:32;36.35;;;21.08;;
74933;SDS011;63499;53.232;7.492;2023-05-15T03:39:59;36.67;;;21.08;;
74933;SDS011;63499;53.232;7.492;2023-05-15T03:42:26;60.83;;;24.17;;
74933;SDS011;63499;53.232;7.492;2023-05-15T03:44:53;32.97;;;19.38;;
74933;SDS011;63499;53.232;7.492;2023-05-15T03:47:21;30.30;;;18.67;;
74933;SDS011;63499;53.232;7.492;2023-05-15T03:49:51;29.73;;;18.25;;
74933;SDS011;63499;53.232;7.492;2023-05-15T03:52:18;40.00;;;22.27;;
74933;SDS011;63499;53.232;7.492;2023-05-15T03:54:47;28.58;;;17.13;;
74933;SDS011;63499;53.232;7.492;2023-05-15T03:57:17;36.42;;;20.77;;
74933;SDS011;63499;53.232;7.492;2023-05-15T03:59:44;29.73;;;18.33;;
74933;SDS011;63499;53.232;7.492;2023-05-15T04:02:13;31.85;;;18.00;;
74933;SDS011;63499;53.232;7.492;2023-05-15T04:04:44;30.88;;;19.50;;
74933;SDS011;63499;53.232;7.492;2023-05-15T04:07:11;30.02;;;18.88;;
74933;SDS011;63499;53.232;7.492;2023-05-15T04:09:37;31.67;;;18.45;;
74933;SDS011;63499;53.232;7.492;2023-05-15T04:12:04;24.95;;;16.30;;
74933;SDS011;63499;53.232;7.492;2023-05-15T04:14:31;32.88;;;19.70;;
74933;SDS011;63499;53.232;7.492;2023-05-15T04:16:57;29.25;;;18.33;;
74933;SDS011;63499;53.232;7.492;2023-05-15T04:19:24;27.48;;;17.08;;
74933;SDS011;63499;53.232;7.492;2023-05-15T04:21:51;34.13;;;20.05;;
74933;SDS011;63499;53.232;7.492;2023-05-15T04:24:18;26.08;;;15.55;;
74933;SDS011;63499;53.232;7.492;2023-05-15T04:26:44;24.95;;;16.02;;
74933;SDS011;63499;53.232;7.492;2023-05-15T04:29:11;30.40;;;17.95;;
74933;SDS011;63499;53.232;7.492;2023-05-15T04:31:38;33.67;;;19.13;;
74933;SDS011;63499;53.232;7.492;2023-05-15T04:34:04;30.77;;;17.70;;
74933;SDS011;63499;53.232;7.492;2023-05-15T04:36:31;36.55;;;20.30;;
74933;SDS011;63499;53.232;7.492;2023-05-15T04:38:58;35.80;;;18.25;;
74933;SDS011;63499;53.232;7.492;2023-05-15T04:41:25;30.38;;;18.30;;
74933;SDS011;63499;53.232;7.492;2023-05-15T04:43:51;40.50;;;19.05;;
74933;SDS011;63499;53.232;7.492;2023-05-15T04:46:18;55.17;;;21.23;;
74933;SDS011;63499;53.232;7.492;2023-05-15T04:48:45;30.20;;;16.65;;
74933;SDS011;63499;53.232;7.492;2023-05-15T04:51:12;37.67;;;19.52;;
74933;SDS011;63499;53.232;7.492;2023-05-15T04:53:38;31.52;;;18.95;;
74933;SDS011;63499;53.232;7.492;2023-05-15T04:56:05;26.88;;;15.63;;
74933;SDS011;63499;53.232;7.492;2023-05-15T04:58:32;34.20;;;17.70;;
74933;SDS011;63499;53.232;7.492;2023-05-15T05:01:01;31.23;;;16.27;;
74933;SDS011;63499;53.232;7.492;2023-05-15T05:03:27;27.67;;;16.23;;
74933;SDS011;63499;53.232;7.492;2023-05-15T05:05:54;31.60;;;18.00;;
74933;SDS011;63499;53.232;7.492;2023-05-15T05:08:20;24.45;;;15.35;;
74933;SDS011;63499;53.232;7.492;2023-05-15T05:10:47;20.67;;;13.30;;
74933;SDS011;63499;53.232;7.492;2023-05-15T05:13:14;21.95;;;14.02;;
74933;SDS011;63499;53.232;7.492;2023-05-15T05:15:40;25.45;;;16.48;;
74933;SDS011;63499;53.232;7.492;2023-05-15T05:18:09;23.30;;;15.02;;
74933;SDS011;63499;53.232;7.492;2023-05-15T05:20:39;31.30;;;17.60;;
74933;SDS011;63499;53.232;7.492;2023-05-15T05:23:06;25.38;;;16.38;;
74933;SDS011;63499;53.232;7.492;2023-05-15T05:25:32;22.95;;;16.05;;
74933;SDS011;63499;53.232;7.492;2023-05-15T05:27:58;26.35;;;16.50;;
74933;SDS011;63499;53.232;7.492;2023-05-15T05:30:25;25.60;;;16.73;;
74933;SDS011;63499;53.232;7.492;2023-05-15T05:32:54;22.70;;;14.85;;
74933;SDS011;63499;53.232;7.492;2023-05-15T05:35:21;27.15;;;16.98;;
74933;SDS011;63499;53.232;7.492;2023-05-15T05:37:49;32.80;;;18.58;;
74933;SDS011;63499;53.232;7.492;2023-05-15T05:40:15;26.85;;;15.57;;
74933;SDS011;63499;53.232;7.492;2023-05-15T05:42:42;36.42;;;17.80;;
74933;SDS011;63499;53.232;7.492;2023-05-15T05:45:09;25.75;;;15.85;;
74933;SDS011;63499;53.232;7.492;2023-05-15T05:47:36;24.70;;;15.52;;
74933;SDS011;63499;53.232;7.492;2023-05-15T05:50:04;25.67;;;15.25;;
74933;SDS011;63499;53.232;7.492;2023-05-15T05:52:30;27.50;;;17.58;;
74933;SDS011;63499;53.232;7.492;2023-05-15T05:55:03;24.83;;;16.23;;
74933;SDS011;63499;53.232;7.492;2023-05-15T05:57:30;27.77;;;16.38;;
74933;SDS011;63499;53.232;7.492;2023-05-15T05:59:57;23.10;;;14.48;;
74933;SDS011;63499;53.232;7.492;2023-05-15T06:02:24;23.55;;;15.23;;
74933;SDS011;63499;53.232;7.492;2023-05-15T06:04:51;26.58;;;16.50;;
74933;SDS011;63499;53.232;7.492;2023-05-15T06:07:21;29.23;;;15.43;;
74933;SDS011;63499;53.232;7.492;2023-05-15T06:09:47;26.65;;;16.25;;
74933;SDS011;63499;53.232;7.492;2023-05-15T06:12:17;25.90;;;16.17;;
74933;SDS011;63499;53.232;7.492;2023-05-15T06:14:48;23.42;;;15.85;;
74933;SDS011;63499;53.232;7.492;2023-05-15T06:17:14;22.73;;;15.02;;
74933;SDS011;63499;53.232;7.492;2023-05-15T06:19:41;25.67;;;15.98;;
74933;SDS011;63499;53.232;7.492;2023-05-15T06:22:07;24.67;;;15.00;;
74933;SDS011;63499;53.232;7.492;2023-05-15T06:24:34;28.80;;;16.50;;
74933;SDS011;63499;53.232;7.492;2023-05-15T06:27:01;24.70;;;13.65;;
74933;SDS011;63499;53.232;7.492;2023-05-15T06:29:27;24.75;;;15.95;;
74933;SDS011;63499;53.232;7.492;2023-05-15T06:31:56;25.55;;;16.33;;
74933;SDS011;63499;53.232;7.492;2023-05-15T06:34:23;34.03;;;18.20;;
74933;SDS011;63499;53.232;7.492;2023-05-15T06:36:49;35.55;;;20.15;;
74933;SDS011;63499;53.232;7.492;2023-05-15T06:39:17;32.40;;;18.38;;
74933;SDS011;63499;53.232;7.492;2023-05-15T06:41:43;39.10;;;20.10;;
74933;SDS011;63499;53.232;7.492;2023-05-15T06:44:11;44.42;;;21.17;;
74933;SDS011;63499;53.232;7.492;2023-05-15T06:46:38;47.90;;;23.40;;
74933;SDS011;63499;53.232;7.492;2023-05-15T06:49:04;47.97;;;23.77;;
74933;SDS011;63499;53.232;7.492;2023-05-15T06:51:31;40.83;;;22.58;;
74933;SDS011;63499;53.232;7.492;2023-05-15T06:53:58;38.78;;;20.17;;
74933;SDS011;63499;53.232;7.492;2023-05-15T06:56:25;36.25;;;19.58;;
74933;SDS011;63499;53.232;7.492;2023-05-15T06:58:51;39.95;;;20.48;;
74933;SDS011;63499;53.232;7.492;2023-05-15T07:01:18;36.85;;;19.50;;
74933;SDS011;63499;53.232;7.492;2023-05-15T07:03:45;50.65;;;22.73;;
74933;SDS011;63499;53.232;7.492;2023-05-15T07:06:17;35.28;;;19.88;;
74933;SDS011;63499;53.232;7.492;2023-05-15T07:08:43;31.67;;;18.73;;
74933;SDS011;63499;53.232;7.492;2023-05-15T07:11:10;29.27;;;17.05;;
74933;SDS011;63499;53.232;7.492;2023-05-15T07:13:37;29.27;;;17.98;;
74933;SDS011;63499;53.232;7.492;2023-05-15T07:16:04;34.47;;;18.80;;
74933;SDS011;63499;53.232;7.492;2023-05-15T07:18:30;26.83;;;16.45;;
74933;SDS011;63499;53.232;7.492;2023-05-15T07:20:58;28.73;;;17.65;;
74933;SDS011;63499;53.232;7.492;2023-05-15T07:23:25;28.05;;;17.58;;
74933;SDS011;63499;53.232;7.492;2023-05-15T07:25:55;31.40;;;18.13;;
74933;SDS011;63499;53.232;7.492;2023-05-15T07:28:24;26.75;;;16.73;;
74933;SDS011;63499;53.232;7.492;2023-05-15T07:30:51;29.40;;;16.95;;
74933;SDS011;63499;53.232;7.492;2023-05-15T07:33:18;33.00;;;18.67;;
74933;SDS011;63499;53.232;7.492;2023-05-15T07:35:49;31.35;;;18.05;;
74933;SDS011;63499;53.232;7.492;2023-05-15T07:38:16;32.60;;;18.30;;
74933;SDS011;63499;53.232;7.492;2023-05-15T07:40:43;29.77;;;16.45;;
74933;SDS011;63499;53.232;7.492;2023-05-15T07:43:13;31.27;;;18.35;;
74933;SDS011;63499;53.232;7.492;2023-05-15T07:45:40;32.40;;;20.95;;
74933;SDS011;63499;53.232;7.492;2023-05-15T07:48:16;30.52;;;18.92;;
74933;SDS011;63499;53.232;7.492;2023-05-15T07:50:44;34.15;;;20.02;;
74933;SDS011;63499;53.232;7.492;2023-05-15T07:53:12;32.47;;;19.60;;
74933;SDS011;63499;53.232;7.492;2023-05-15T07:55:39;33.83;;;19.98;;
74933;SDS011;63499;53.232;7.492;2023-05-15T08:47:10;29.53;;;20.73;;
74933;SDS011;63499;53.232;7.492;2023-05-15T08:54:37;29.27;;;20.33;;
74933;SDS011;63499;53.232;7.492;2023-05-15T08:57:05;30.00;;;18.60;;
74933;SDS011;63499;53.232;7.492;2023-05-15T08:59:32;26.45;;;19.98;;
74933;SDS011;63499;53.232;7.492;2023-05-15T09:01:59;27.27;;;20.08;;
74933;SDS011;63499;53.232;7.492;2023-05-15T09:04:27;28.23;;;20.30;;
74933;SDS011;63499;53.232;7.492;2023-05-15T09:06:54;31.25;;;18.55;;
74933;SDS011;63499;53.232;7.492;2023-05-15T09:09:21;26.70;;;20.15;;
74933;SDS011;63499;53.232;7.492;2023-05-15T09:11:49;26.95;;;19.73;;
74933;SDS011;63499;53.232;7.492;2023-05-15T09:14:16;23.40;;;17.42;;
74933;SDS011;63499;53.232;7.492;2023-05-15T09:16:43;28.27;;;19.75;;
74933;SDS011;63499;53.232;7.492;2023-05-15T09:19:11;24.33;;;17.90;;
74933;SDS011;63499;53.232;7.492;2023-05-15T09:21:40;24.45;;;17.77;;
74933;SDS011;63499;53.232;7.492;2023-05-15T09:26:43;24.42;;;18.23;;
74933;SDS011;63499;53.232;7.492;2023-05-15T09:29:10;33.90;;;19.20;;
74933;SDS011;63499;53.232;7.492;2023-05-15T09:31:37;26.85;;;18.23;;
74933;SDS011;63499;53.232;7.492;2023-05-15T09:34:03;26.80;;;19.35;;
74933;SDS011;63499;53.232;7.492;2023-05-15T09:36:30;29.75;;;20.05;;
74933;SDS011;63499;53.232;7.492;2023-05-15T09:38:58;25.75;;;17.67;;
74933;SDS011;63499;53.232;7.492;2023-05-15T09:41:25;27.35;;;18.60;;
74933;SDS011;63499;53.232;7.492;2023-05-15T09:43:52;27.33;;;18.08;;
74933;SDS011;63499;53.232;7.492;2023-05-15T09:46:22;23.65;;;17.83;;
74933;SDS011;63499;53.232;7.492;2023-05-15T09:48:48;22.77;;;17.05;;
74933;SDS011;63499;53.232;7.492;2023-05-15T09:51:19;21.90;;;16.40;;
74933;SDS011;63499;53.232;7.492;2023-05-15T09:53:53;20.83;;;15.10;;
74933;SDS011;63499;53.232;7.492;2023-05-15T09:56:20;22.50;;;15.45;;
74933;SDS011;63499;53.232;7.492;2023-05-15T10:01:20;20.83;;;15.40;;
74933;SDS011;63499;53.232;7.492;2023-05-15T10:03:59;20.45;;;14.23;;
74933;SDS011;63499;53.232;7.492;2023-05-15T10:06:26;19.67;;;14.45;;
74933;SDS011;63499;53.232;7.492;2023-05-15T10:08:53;21.52;;;15.60;;
74933;SDS011;63499;53.232;7.492;2023-05-15T10:11:20;19.10;;;15.25;;
74933;SDS011;63499;53.232;7.492;2023-05-15T10:13:48;18.70;;;15.38;;
74933;SDS011;63499;53.232;7.492;2023-05-15T10:16:19;21.70;;;15.63;;
74933;SDS011;63499;53.232;7.492;2023-05-15T10:18:47;18.10;;;14.43;;
74933;SDS011;63499;53.232;7.492;2023-05-15T10:21:15;15.65;;;13.95;;
74933;SDS011;63499;53.232;7.492;2023-05-15T10:23:43;18.02;;;14.23;;
74933;SDS011;63499;53.232;7.492;2023-05-15T10:26:17;18.52;;;13.75;;
74933;SDS011;63499;53.232;7.492;2023-05-15T10:28:46;15.50;;;13.02;;
74933;SDS011;63499;53.232;7.492;2023-05-15T10:31:13;20.33;;;13.48;;
74933;SDS011;63499;53.232;7.492;2023-05-15T10:33:40;15.48;;;13.75;;
74933;SDS011;63499;53.232;7.492;2023-05-15T10:36:13;15.00;;;12.98;;
74933;SDS011;63499;53.232;7.492;2023-05-15T10:38:41;15.07;;;12.07;;
74933;SDS011;63499;53.232;7.492;2023-05-15T10:41:08;13.48;;;10.38;;
74933;SDS011;63499;53.232;7.492;2023-05-15T10:43:37;14.65;;;10.90;;
74933;SDS011;63499;53.232;7.492;2023-05-15T10:46:04;14.32;;;9.93;;
74933;SDS011;63499;53.232;7.492;2023-05-15T10:48:32;12.45;;;8.65;;
74933;SDS011;63499;53.232;7.492;2023-05-15T10:50:59;9.80;;;8.05;;
74933;SDS011;63499;53.232;7.492;2023-05-15T10:53:28;9.57;;;7.82;;
74933;SDS011;63499;53.232;7.492;2023-05-15T10:55:55;9.35;;;6.57;;
74933;SDS011;63499;53.232;7.492;2023-05-15T10:58:22;9.55;;;6.78;;
74933;SDS011;63499;53.232;7.492;2023-05-15T11:00:50;11.60;;;6.53;;
74933;SDS011;63499;53.232;7.492;2023-05-15T11:03:33;8.48;;;5.53;;
74933;SDS011;63499;53.232;7.492;2023-05-15T11:06:10;8.68;;;5.50;;
74933;SDS011;63499;53.232;7.492;2023-05-15T11:08:40;9.48;;;5.40;;
74933;SDS011;63499;53.232;7.492;2023-05-15T11:11:32;7.22;;;4.82;;
74933;SDS011;63499;53.232;7.492;2023-05-15T11:19:38;4.88;;;4.13;;
74933;SDS011;63499;53.232;7.492;2023-05-15T11:24:50;6.03;;;5.05;;
74933;SDS011;63499;53.232;7.492;2023-05-15T11:27:19;8.75;;;5.18;;
74933;SDS011;63499;53.232;7.492;2023-05-15T11:30:01;7.75;;;5.43;;
74933;SDS011;63499;53.232;7.492;2023-05-15T11:35:11;10.20;;;5.43;;
74933;SDS011;63499;53.232;7.492;2023-05-15T11:37:57;7.43;;;4.72;;
74933;SDS011;63499;53.232;7.492;2023-05-15T11:40:25;5.82;;;4.28;;
74933;SDS011;63499;53.232;7.492;2023-05-15T11:42:59;4.80;;;3.92;;
74933;SDS011;63499;53.232;7.492;2023-05-15T11:45:30;4.40;;;3.63;;
74933;SDS011;63499;53.232;7.492;2023-05-15T11:48:01;6.13;;;4.07;;
74933;SDS011;63499;53.232;7.492;2023-05-15T11:50:29;7.90;;;3.42;;
74933;SDS011;63499;53.232;7.492;2023-05-15T11:53:03;7.22;;;3.88;;
74933;SDS011;63499;53.232;7.492;2023-05-15T11:55:32;5.88;;;3.95;;
74933;SDS011;63499;53.232;7.492;2023-05-15T11:57:59;7.82;;;4.05;;
74933;SDS011;63499;53.232;7.492;2023-05-15T12:00:29;9.15;;;4.30;;
74933;SDS011;63499;53.232;7.492;2023-05-15T12:02:55;8.95;;;4.30;;
74933;SDS011;63499;53.232;7.492;2023-05-15T12:05:23;7.97;;;3.50;;
74933;SDS011;63499;53.232;7.492;2023-05-15T12:07:49;9.77;;;4.03;;
74933;SDS011;63499;53.232;7.492;2023-05-15T12:10:17;5.78;;;3.80;;
74933;SDS011;63499;53.232;7.492;2023-05-15T12:12:44;6.80;;;3.90;;
74933;SDS011;63499;53.232;7.492;2023-05-15T12:15:11;7.43;;;4.38;;
74933;SDS011;63499;53.232;7.492;2023-05-15T12:17:39;6.95;;;3.72;;
74933;SDS011;63499;53.232;7.492;2023-05-15T12:20:09;6.35;;;3.90;;
74933;SDS011;63499;53.232;7.492;2023-05-15T12:22:37;6.07;;;4.07;;
74933;SDS011;63499;53.232;7.492;2023-05-15T12:25:05;4.78;;;3.95;;
74933;SDS011;63499;53.232;7.492;2023-05-15T12:27:33;5.00;;;3.75;;
74933;SDS011;63499;53.232;7.492;2023-05-15T12:30:00;7.90;;;3.47;;
74933;SDS011;63499;53.232;7.492;2023-05-15T12:32:34;7.13;;;4.03;;
74933;SDS011;63499;53.232;7.492;2023-05-15T12:35:01;6.07;;;4.00;;
74933;SDS011;63499;53.232;7.492;2023-05-15T12:37:31;6.50;;;3.42;;
74933;SDS011;63499;53.232;7.492;2023-05-15T12:40:02;4.95;;;3.63;;
74933;SDS011;63499;53.232;7.492;2023-05-15T12:42:38;9.10;;;4.13;;
74933;SDS011;63499;53.232;7.492;2023-05-15T12:45:10;6.60;;;3.33;;
74933;SDS011;63499;53.232;7.492;2023-05-15T12:47:38;6.13;;;3.78;;
74933;SDS011;63499;53.232;7.492;2023-05-15T12:55:07;5.97;;;4.13;;
74933;SDS011;63499;53.232;7.492;2023-05-15T12:57:34;5.47;;;3.60;;
74933;SDS011;63499;53.232;7.492;2023-05-15T13:00:01;7.05;;;4.35;;
74933;SDS011;63499;53.232;7.492;2023-05-15T13:02:28;6.03;;;4.03;;
74933;SDS011;63499;53.232;7.492;2023-05-15T13:04:55;5.95;;;4.35;;
74933;SDS011;63499;53.232;7.492;2023-05-15T13:07:24;7.10;;;4.32;;
74933;SDS011;63499;53.232;7.492;2023-05-15T13:10:04;4.95;;;4.25;;
74933;SDS011;63499;53.232;7.492;2023-05-15T13:12:44;6.63;;;4.43;;
74933;SDS011;63499;53.232;7.492;2023-05-15T13:18:11;6.72;;;4.05;;
74933;SDS011;63499;53.232;7.492;2023-05-15T13:20:39;4.93;;;4.43;;
74933;SDS011;63499;53.232;7.492;2023-05-15T13:23:07;8.00;;;3.92;;
74933;SDS011;63499;53.232;7.492;2023-05-15T13:25:34;6.70;;;5.00;;
74933;SDS011;63499;53.232;7.492;2023-05-15T13:28:04;6.28;;;4.47;;
74933;SDS011;63499;53.232;7.492;2023-05-15T13:30:32;6.18;;;4.60;;
74933;SDS011;63499;53.232;7.492;2023-05-15T13:33:01;5.00;;;4.45;;
74933;SDS011;63499;53.232;7.492;2023-05-15T13:35:28;6.40;;;4.43;;
74933;SDS011;63499;53.232;7.492;2023-05-15T13:37:55;5.85;;;4.60;;
74933;SDS011;63499;53.232;7.492;2023-05-15T13:40:22;5.15;;;3.75;;
74933;SDS011;63499;53.232;7.492;2023-05-15T13:42:49;5.05;;;4.25;;
74933;SDS011;63499;53.232;7.492;2023-05-15T13:45:16;4.22;;;3.75;;
74933;SDS011;63499;53.232;7.492;2023-05-15T13:47:42;7.32;;;4.53;;
74933;SDS011;63499;53.232;7.492;2023-05-15T13:50:10;10.45;;;5.10;;
74933;SDS011;63499;53.232;7.492;2023-05-15T13:52:37;8.43;;;5.63;;
74933;SDS011;63499;53.232;7.492;2023-05-15T13:55:04;8.05;;;5.57;;
74933;SDS011;63499;53.232;7.492;2023-05-15T13:57:31;5.95;;;5.35;;
74933;SDS011;63499;53.232;7.492;2023-05-15T14:00:01;7.30;;;4.68;;
74933;SDS011;63499;53.232;7.492;2023-05-15T14:02:30;5.93;;;4.45;;
74933;SDS011;63499;53.232;7.492;2023-05-15T14:04:57;8.13;;;4.75;;
74933;SDS011;63499;53.232;7.492;2023-05-15T14:07:23;7.03;;;4.20;;
74933;SDS011;63499;53.232;7.492;2023-05-15T14:09:51;4.57;;;3.88;;
74933;SDS011;63499;53.232;7.492;2023-05-15T14:12:18;4.93;;;4.10;;
74933;SDS011;63499;53.232;7.492;2023-05-15T14:14:47;5.38;;;4.40;;
74933;SDS011;63499;53.232;7.492;2023-05-15T14:17:13;4.80;;;3.88;;
74933;SDS011;63499;53.232;7.492;2023-05-15T14:19:40;4.70;;;4.18;;
74933;SDS011;63499;53.232;7.492;2023-05-15T14:22:07;5.07;;;4.57;;
74933;SDS011;63499;53.232;7.492;2023-05-15T14:24:34;5.70;;;4.30;;
74933;SDS011;63499;53.232;7.492;2023-05-15T14:27:00;5.72;;;4.60;;
74933;SDS011;63499;53.232;7.492;2023-05-15T14:29:27;6.68;;;4.05;;
74933;SDS011;63499;53.232;7.492;2023-05-15T14:31:54;7.85;;;4.45;;
74933;SDS011;63499;53.232;7.492;2023-05-15T14:34:20;6.38;;;4.50;;
74933;SDS011;63499;53.232;7.492;2023-05-15T14:36:48;5.72;;;4.03;;
74933;SDS011;63499;53.232;7.492;2023-05-15T14:39:16;7.30;;;3.95;;
74933;SDS011;63499;53.232;7.492;2023-05-15T14:41:46;6.18;;;4.00;;
74933;SDS011;63499;53.232;7.492;2023-05-15T14:44:13;4.65;;;3.33;;
74933;SDS011;63499;53.232;7.492;2023-05-15T14:46:41;6.47;;;3.35;;
74933;SDS011;63499;53.232;7.492;2023-05-15T14:49:07;5.45;;;3.00;;
74933;SDS011;63499;53.232;7.492;2023-05-15T14:51:34;4.25;;;2.92;;
74933;SDS011;63499;53.232;7.492;2023-05-15T14:54:01;3.80;;;2.80;;
74933;SDS011;63499;53.232;7.492;2023-05-15T14:56:29;5.05;;;2.90;;
74933;SDS011;63499;53.232;7.492;2023-05-15T14:58:56;3.47;;;2.92;;
74933;SDS011;63499;53.232;7.492;2023-05-15T15:01:23;4.18;;;3.45;;
74933;SDS011;63499;53.232;7.492;2023-05-15T15:03:50;7.28;;;3.70;;
74933;SDS011;63499;53.232;7.492;2023-05-15T15:06:17;8.13;;;4.40;;
74933;SDS011;63499;53.232;7.492;2023-05-15T15:08:44;3.70;;;3.15;;
74933;SDS011;63499;53.232;7.492;2023-05-15T15:11:10;6.20;;;4.20;;
74933;SDS011;63499;53.232;7.492;2023-05-15T15:13:37;7.38;;;4.07;;
74933;SDS011;63499;53.232;7.492;2023-05-15T15:16:03;4.68;;;4.20;;
74933;SDS011;63499;53.232;7.492;2023-05-15T15:18:38;4.22;;;3.83;;
74933;SDS011;63499;53.232;7.492;2023-05-15T15:21:04;4.30;;;3.90;;
74933;SDS011;63499;53.232;7.492;2023-05-15T15:23:31;5.20;;;3.53;;
74933;SDS011;63499;53.232;7.492;2023-05-15T15:25:58;6.40;;;3.70;;
74933;SDS011;63499;53.232;7.492;2023-05-15T15:28:26;4.00;;;3.60;;
74933;SDS011;63499;53.232;7.492;2023-05-15T15:30:58;9.50;;;3.40;;
74933;SDS011;63499;53.232;7.492;2023-05-15T15:33:25;4.95;;;3.33;;
74933;SDS011;63499;53.232;7.492;2023-05-15T15:35:53;4.63;;;3.58;;
74933;SDS011;63499;53.232;7.492;2023-05-15T15:38:20;3.50;;;2.75;;
74933;SDS011;63499;53.232;7.492;2023-05-15T15:40:47;5.70;;;3.92;;
74933;SDS011;63499;53.232;7.492;2023-05-15T15:43:18;3.60;;;3.30;;
74933;SDS011;63499;53.232;7.492;2023-05-15T15:45:45;5.60;;;3.40;;
74933;SDS011;63499;53.232;7.492;2023-05-15T15:48:17;6.53;;;2.97;;
74933;SDS011;63499;53.232;7.492;2023-05-15T15:50:43;5.70;;;3.80;;
74933;SDS011;63499;53.232;7.492;2023-05-15T15:53:13;4.05;;;3.65;;
74933;SDS011;63499;53.232;7.492;2023-05-15T15:55:40;5.55;;;3.70;;
74933;SDS011;63499;53.232;7.492;2023-05-15T15:58:07;4.10;;;3.70;;
74933;SDS011;63499;53.232;7.492;2023-05-15T16:00:33;3.65;;;3.17;;
74933;SDS011;63499;53.232;7.492;2023-05-15T16:03:01;5.18;;;3.30;;